<?xml version="1.0" encoding="utf-8"?>
<gpx xmlns:xsi="http://www.w3.org/2001/XMLSchema-instance" xmlns:xsd="http://www.w3.org/2001/XMLSchema" version="1.1" creator="Shapelink.com" xmlns="http://www.topografix.com/GPX/1/1" xmlns:gpxtpx="http://www.garmin.com/xmlschemas/TrackPointExtension/v1">
  <metadata>
    <name>Cycling 13.66 km, 2020-08-16</name>
    <desc></desc>
    <author><name>Marian Moron</name></author> 
    <time>2020-08-16T16:36:04Z</time>
  </metadata>
  <trk>
    <name>Cycling 13.66 km, 2020-08-16</name>
    <trkseg>
      <trkpt lat="51.229488334046" lon="4.449393984202">
        <ele>0</ele>
        <time>2020-08-16T16:36:04Z</time>
      </trkpt>
      <trkpt lat="51.229477018481" lon="4.449493728812">
        <ele>0</ele>
        <time>2020-08-16T16:36:11Z</time>
      </trkpt>
      <trkpt lat="51.229628311776" lon="4.450332170269">
        <ele>0</ele>
        <time>2020-08-16T16:36:30Z</time>
      </trkpt>
      <trkpt lat="51.229762757452" lon="4.451172874839">
        <ele>0</ele>
        <time>2020-08-16T16:36:50Z</time>
      </trkpt>
      <trkpt lat="51.22985009685" lon="4.451536816937">
        <ele>0</ele>
        <time>2020-08-16T16:36:59Z</time>
      </trkpt>
      <trkpt lat="51.230011448425" lon="4.45235715349">
        <ele>0</ele>
        <time>2020-08-16T16:37:18Z</time>
      </trkpt>
      <trkpt lat="51.230163663729" lon="4.45319618168">
        <ele>0</ele>
        <time>2020-08-16T16:37:35Z</time>
      </trkpt>
      <trkpt lat="51.230288554039" lon="4.454063205416">
        <ele>0</ele>
        <time>2020-08-16T16:37:53Z</time>
      </trkpt>
      <trkpt lat="51.230249494385" lon="4.454903407072">
        <ele>0</ele>
        <time>2020-08-16T16:38:11Z</time>
      </trkpt>
      <trkpt lat="51.230210770007" lon="4.455091748365">
        <ele>0</ele>
        <time>2020-08-16T16:38:16Z</time>
      </trkpt>
      <trkpt lat="51.23021303312" lon="4.455170789682">
        <ele>0</ele>
        <time>2020-08-16T16:38:19Z</time>
      </trkpt>
      <trkpt lat="51.230189647619" lon="4.455275395794">
        <ele>0</ele>
        <time>2020-08-16T16:38:23Z</time>
      </trkpt>
      <trkpt lat="51.230214793319" lon="4.455327279755">
        <ele>0</ele>
        <time>2020-08-16T16:38:25Z</time>
      </trkpt>
      <trkpt lat="51.230718964604" lon="4.455710248766">
        <ele>0</ele>
        <time>2020-08-16T16:38:42Z</time>
      </trkpt>
      <trkpt lat="51.231175359059" lon="4.456194890224">
        <ele>0</ele>
        <time>2020-08-16T16:38:59Z</time>
      </trkpt>
      <trkpt lat="51.23127250528" lon="4.456299747793">
        <ele>0</ele>
        <time>2020-08-16T16:39:03Z</time>
      </trkpt>
      <trkpt lat="51.231274516936" lon="4.456383231517">
        <ele>0</ele>
        <time>2020-08-16T16:39:05Z</time>
      </trkpt>
      <trkpt lat="51.231253981281" lon="4.457270707089">
        <ele>0</ele>
        <time>2020-08-16T16:39:25Z</time>
      </trkpt>
      <trkpt lat="51.231293292392" lon="4.458168492398">
        <ele>0</ele>
        <time>2020-08-16T16:39:43Z</time>
      </trkpt>
      <trkpt lat="51.231317516083" lon="4.458494213032">
        <ele>0</ele>
        <time>2020-08-16T16:39:49Z</time>
      </trkpt>
      <trkpt lat="51.230799682301" lon="4.458718009762">
        <ele>0</ele>
        <time>2020-08-16T16:40:04Z</time>
      </trkpt>
      <trkpt lat="51.230463568111" lon="4.459189659275">
        <ele>0</ele>
        <time>2020-08-16T16:40:21Z</time>
      </trkpt>
      <trkpt lat="51.230528108741" lon="4.459770776402">
        <ele>0</ele>
        <time>2020-08-16T16:40:34Z</time>
      </trkpt>
      <trkpt lat="51.23049298858" lon="4.459803968726">
        <ele>0</ele>
        <time>2020-08-16T16:40:37Z</time>
      </trkpt>
      <trkpt lat="51.230554679364" lon="4.459950484338">
        <ele>0</ele>
        <time>2020-08-16T16:45:43Z</time>
      </trkpt>
      <trkpt lat="51.230608910257" lon="4.460639895613">
        <ele>0</ele>
        <time>2020-08-16T16:45:59Z</time>
      </trkpt>
      <trkpt lat="51.230572029897" lon="4.460695970524">
        <ele>0</ele>
        <time>2020-08-16T16:46:01Z</time>
      </trkpt>
      <trkpt lat="51.230034331012" lon="4.460869308216">
        <ele>1</ele>
        <time>2020-08-16T16:46:26Z</time>
      </trkpt>
      <trkpt lat="51.229759404692" lon="4.461304161188">
        <ele>1.2</ele>
        <time>2020-08-16T16:46:48Z</time>
      </trkpt>
      <trkpt lat="51.22995319422" lon="4.462128269596">
        <ele>0</ele>
        <time>2020-08-16T16:47:06Z</time>
      </trkpt>
      <trkpt lat="51.230187133049" lon="4.462900661681">
        <ele>0</ele>
        <time>2020-08-16T16:47:23Z</time>
      </trkpt>
      <trkpt lat="51.230383604785" lon="4.46370121695">
        <ele>0</ele>
        <time>2020-08-16T16:47:41Z</time>
      </trkpt>
      <trkpt lat="51.230622321297" lon="4.464490372835">
        <ele>0</ele>
        <time>2020-08-16T16:47:58Z</time>
      </trkpt>
      <trkpt lat="51.230780403931" lon="4.465343985531">
        <ele>0</ele>
        <time>2020-08-16T16:48:16Z</time>
      </trkpt>
      <trkpt lat="51.230747211607" lon="4.466234394768">
        <ele>0.6</ele>
        <time>2020-08-16T16:48:35Z</time>
      </trkpt>
      <trkpt lat="51.230728268513" lon="4.467129162593">
        <ele>0</ele>
        <time>2020-08-16T16:48:57Z</time>
      </trkpt>
      <trkpt lat="51.230707481401" lon="4.467364023431">
        <ele>0.6</ele>
        <time>2020-08-16T16:49:03Z</time>
      </trkpt>
      <trkpt lat="51.230153270173" lon="4.467443819119">
        <ele>0</ele>
        <time>2020-08-16T16:49:26Z</time>
      </trkpt>
      <trkpt lat="51.229996277186" lon="4.467432168278">
        <ele>0</ele>
        <time>2020-08-16T16:49:34Z</time>
      </trkpt>
      <trkpt lat="51.229454890265" lon="4.467623024141">
        <ele>0</ele>
        <time>2020-08-16T16:49:54Z</time>
      </trkpt>
      <trkpt lat="51.228909396213" lon="4.467445663137">
        <ele>0</ele>
        <time>2020-08-16T16:50:11Z</time>
      </trkpt>
      <trkpt lat="51.228384353997" lon="4.467238127293">
        <ele>0</ele>
        <time>2020-08-16T16:50:29Z</time>
      </trkpt>
      <trkpt lat="51.227904490222" lon="4.466782487209">
        <ele>4.2</ele>
        <time>2020-08-16T16:50:49Z</time>
      </trkpt>
      <trkpt lat="51.227554042983" lon="4.466358363069">
        <ele>0</ele>
        <time>2020-08-16T16:51:43Z</time>
      </trkpt>
      <trkpt lat="51.227431415786" lon="4.466275801354">
        <ele>0</ele>
        <time>2020-08-16T16:51:56Z</time>
      </trkpt>
      <trkpt lat="51.227435355279" lon="4.466207572688">
        <ele>0</ele>
        <time>2020-08-16T16:53:54Z</time>
      </trkpt>
      <trkpt lat="51.22730702839" lon="4.466377892896">
        <ele>0</ele>
        <time>2020-08-16T16:54:02Z</time>
      </trkpt>
      <trkpt lat="51.226765725288" lon="4.466367750797">
        <ele>0</ele>
        <time>2020-08-16T16:54:19Z</time>
      </trkpt>
      <trkpt lat="51.226206149644" lon="4.466241519383">
        <ele>0</ele>
        <time>2020-08-16T16:54:36Z</time>
      </trkpt>
      <trkpt lat="51.225857043509" lon="4.466089471717">
        <ele>0</ele>
        <time>2020-08-16T16:54:50Z</time>
      </trkpt>
      <trkpt lat="51.225834663836" lon="4.466134985434">
        <ele>0</ele>
        <time>2020-08-16T16:54:52Z</time>
      </trkpt>
      <trkpt lat="51.225871292739" lon="4.467024472662">
        <ele>1</ele>
        <time>2020-08-16T16:55:13Z</time>
      </trkpt>
      <trkpt lat="51.225887385987" lon="4.467927119473">
        <ele>2.6</ele>
        <time>2020-08-16T16:55:32Z</time>
      </trkpt>
      <trkpt lat="51.225850757084" lon="4.468794478485">
        <ele>0.8</ele>
        <time>2020-08-16T16:55:49Z</time>
      </trkpt>
      <trkpt lat="51.225844722116" lon="4.469158336764">
        <ele>5</ele>
        <time>2020-08-16T16:55:57Z</time>
      </trkpt>
      <trkpt lat="51.225298138417" lon="4.469180884075">
        <ele>0</ele>
        <time>2020-08-16T16:56:15Z</time>
      </trkpt>
      <trkpt lat="51.224921707288" lon="4.469586819492">
        <ele>0.4</ele>
        <time>2020-08-16T16:56:33Z</time>
      </trkpt>
      <trkpt lat="51.224845683455" lon="4.470417549601">
        <ele>1.2</ele>
        <time>2020-08-16T16:56:52Z</time>
      </trkpt>
      <trkpt lat="51.22483185332" lon="4.471244507855">
        <ele>0.4</ele>
        <time>2020-08-16T16:57:11Z</time>
      </trkpt>
      <trkpt lat="51.22487879196" lon="4.472095270705">
        <ele>2</ele>
        <time>2020-08-16T16:57:31Z</time>
      </trkpt>
      <trkpt lat="51.224825231619" lon="4.472274811003">
        <ele>2.4</ele>
        <time>2020-08-16T16:57:37Z</time>
      </trkpt>
      <trkpt lat="51.224270768934" lon="4.472247066914">
        <ele>1</ele>
        <time>2020-08-16T16:57:58Z</time>
      </trkpt>
      <trkpt lat="51.223817224325" lon="4.472582762009">
        <ele>1.6</ele>
        <time>2020-08-16T16:58:17Z</time>
      </trkpt>
      <trkpt lat="51.223465184525" lon="4.473277118605">
        <ele>3.4</ele>
        <time>2020-08-16T16:58:38Z</time>
      </trkpt>
      <trkpt lat="51.223102834988" lon="4.473865527985">
        <ele>5.2</ele>
        <time>2020-08-16T16:58:55Z</time>
      </trkpt>
      <trkpt lat="51.222859424612" lon="4.473426400244">
        <ele>1.6</ele>
        <time>2020-08-16T16:59:06Z</time>
      </trkpt>
      <trkpt lat="51.222818856216" lon="4.4738055974">
        <ele>0</ele>
        <time>2020-08-16T16:59:16Z</time>
      </trkpt>
      <trkpt lat="51.222446783675" lon="4.474437089746">
        <ele>0</ele>
        <time>2020-08-16T16:59:34Z</time>
      </trkpt>
      <trkpt lat="51.222030706159" lon="4.475026169678">
        <ele>0</ele>
        <time>2020-08-16T16:59:53Z</time>
      </trkpt>
      <trkpt lat="51.221774890571" lon="4.475640311491">
        <ele>4.6</ele>
        <time>2020-08-16T17:00:07Z</time>
      </trkpt>
      <trkpt lat="51.221325872188" lon="4.475141504622">
        <ele>2</ele>
        <time>2020-08-16T17:00:22Z</time>
      </trkpt>
      <trkpt lat="51.220822622912" lon="4.474792817582">
        <ele>3.2</ele>
        <time>2020-08-16T17:00:38Z</time>
      </trkpt>
      <trkpt lat="51.220291126633" lon="4.474521914574">
        <ele>0.8</ele>
        <time>2020-08-16T17:00:54Z</time>
      </trkpt>
      <trkpt lat="51.220073951604" lon="4.47445016551">
        <ele>0.8</ele>
        <time>2020-08-16T17:01:01Z</time>
      </trkpt>
      <trkpt lat="51.219675224621" lon="4.475071431938">
        <ele>0</ele>
        <time>2020-08-16T17:01:18Z</time>
      </trkpt>
      <trkpt lat="51.219253447413" lon="4.475493292965">
        <ele>3.8</ele>
        <time>2020-08-16T17:01:38Z</time>
      </trkpt>
      <trkpt lat="51.219016742557" lon="4.475467895808">
        <ele>3</ele>
        <time>2020-08-16T17:01:56Z</time>
      </trkpt>
      <trkpt lat="51.21884130939" lon="4.475447779248">
        <ele>1.8</ele>
        <time>2020-08-16T17:02:06Z</time>
      </trkpt>
      <trkpt lat="51.218745336635" lon="4.476294015872">
        <ele>1.2</ele>
        <time>2020-08-16T17:02:23Z</time>
      </trkpt>
      <trkpt lat="51.218664199843" lon="4.477169337689">
        <ele>1.2</ele>
        <time>2020-08-16T17:02:40Z</time>
      </trkpt>
      <trkpt lat="51.218123399655" lon="4.477172438992">
        <ele>0</ele>
        <time>2020-08-16T17:02:55Z</time>
      </trkpt>
      <trkpt lat="51.217584108209" lon="4.477065905043">
        <ele>0</ele>
        <time>2020-08-16T17:03:12Z</time>
      </trkpt>
      <trkpt lat="51.217214047324" lon="4.477137821745">
        <ele>0.2</ele>
        <time>2020-08-16T17:03:27Z</time>
      </trkpt>
      <trkpt lat="51.217180855" lon="4.477289617954">
        <ele>0.4</ele>
        <time>2020-08-16T17:03:31Z</time>
      </trkpt>
      <trkpt lat="51.217136095654" lon="4.477356505516">
        <ele>0</ele>
        <time>2020-08-16T17:03:35Z</time>
      </trkpt>
      <trkpt lat="51.217105836995" lon="4.477518946738">
        <ele>3</ele>
        <time>2020-08-16T17:04:21Z</time>
      </trkpt>
      <trkpt lat="51.216535029605" lon="4.477562951713">
        <ele>0</ele>
        <time>2020-08-16T17:04:36Z</time>
      </trkpt>
      <trkpt lat="51.216031528872" lon="4.477823293527">
        <ele>0</ele>
        <time>2020-08-16T17:04:50Z</time>
      </trkpt>
      <trkpt lat="51.215677225959" lon="4.478538437235">
        <ele>0</ele>
        <time>2020-08-16T17:05:05Z</time>
      </trkpt>
      <trkpt lat="51.215215886183" lon="4.478805065474">
        <ele>0</ele>
        <time>2020-08-16T17:05:22Z</time>
      </trkpt>
      <trkpt lat="51.214694532003" lon="4.478437183883">
        <ele>0</ele>
        <time>2020-08-16T17:05:39Z</time>
      </trkpt>
      <trkpt lat="51.214262109782" lon="4.477871992366">
        <ele>0</ele>
        <time>2020-08-16T17:05:54Z</time>
      </trkpt>
      <trkpt lat="51.214113247238" lon="4.47781801293">
        <ele>0</ele>
        <time>2020-08-16T17:06:00Z</time>
      </trkpt>
      <trkpt lat="51.213696163894" lon="4.47824213707">
        <ele>0</ele>
        <time>2020-08-16T17:06:18Z</time>
      </trkpt>
      <trkpt lat="51.213376142952" lon="4.478799617239">
        <ele>0</ele>
        <time>2020-08-16T17:06:36Z</time>
      </trkpt>
      <trkpt lat="51.213183443071" lon="4.479629592977">
        <ele>0</ele>
        <time>2020-08-16T17:06:53Z</time>
      </trkpt>
      <trkpt lat="51.212989234448" lon="4.480151282433">
        <ele>0</ele>
        <time>2020-08-16T17:07:09Z</time>
      </trkpt>
      <trkpt lat="51.212982445109" lon="4.480166788948">
        <ele>0</ele>
        <time>2020-08-16T17:07:12Z</time>
      </trkpt>
      <trkpt lat="51.212952521726" lon="4.480230491388">
        <ele>0</ele>
        <time>2020-08-16T17:07:17Z</time>
      </trkpt>
      <trkpt lat="51.212884460698" lon="4.480522516784">
        <ele>0</ele>
        <time>2020-08-16T17:07:28Z</time>
      </trkpt>
      <trkpt lat="51.21338720706" lon="4.4809302124">
        <ele>0</ele>
        <time>2020-08-16T17:07:45Z</time>
      </trkpt>
      <trkpt lat="51.213890623974" lon="4.481323910243">
        <ele>0</ele>
        <time>2020-08-16T17:08:01Z</time>
      </trkpt>
      <trkpt lat="51.214380713667" lon="4.481707046892">
        <ele>0</ele>
        <time>2020-08-16T17:08:18Z</time>
      </trkpt>
      <trkpt lat="51.214893602128" lon="4.482012902423">
        <ele>0</ele>
        <time>2020-08-16T17:08:35Z</time>
      </trkpt>
      <trkpt lat="51.215009272348" lon="4.482080963451">
        <ele>0.4</ele>
        <time>2020-08-16T17:08:38Z</time>
      </trkpt>
      <trkpt lat="51.215566081965" lon="4.482266622536">
        <ele>0</ele>
        <time>2020-08-16T17:08:53Z</time>
      </trkpt>
      <trkpt lat="51.216118197718" lon="4.482374916684">
        <ele>0.2</ele>
        <time>2020-08-16T17:09:09Z</time>
      </trkpt>
      <trkpt lat="51.216682215769" lon="4.48234004798">
        <ele>0.8</ele>
        <time>2020-08-16T17:09:26Z</time>
      </trkpt>
      <trkpt lat="51.21697717483" lon="4.482275591169">
        <ele>1.2</ele>
        <time>2020-08-16T17:09:36Z</time>
      </trkpt>
      <trkpt lat="51.217005086557" lon="4.482336443763">
        <ele>1.2</ele>
        <time>2020-08-16T17:09:38Z</time>
      </trkpt>
      <trkpt lat="51.216907018327" lon="4.483738316538">
        <ele>0.8</ele>
        <time>2020-08-16T17:10:05Z</time>
      </trkpt>
      <trkpt lat="51.216926296697" lon="4.484097564772">
        <ele>1</ele>
        <time>2020-08-16T17:10:11Z</time>
      </trkpt>
      <trkpt lat="51.216875502383" lon="4.484547924259">
        <ele>1.2</ele>
        <time>2020-08-16T17:10:19Z</time>
      </trkpt>
      <trkpt lat="51.216820098024" lon="4.485406649914">
        <ele>1.6</ele>
        <time>2020-08-16T17:10:35Z</time>
      </trkpt>
      <trkpt lat="51.216781541284" lon="4.486296388599">
        <ele>1.4</ele>
        <time>2020-08-16T17:10:53Z</time>
      </trkpt>
      <trkpt lat="51.216785816053" lon="4.486615487532">
        <ele>1.4</ele>
        <time>2020-08-16T17:11:00Z</time>
      </trkpt>
      <trkpt lat="51.21710122695" lon="4.486736019254">
        <ele>1.4</ele>
        <time>2020-08-16T17:11:14Z</time>
      </trkpt>
      <trkpt lat="51.217184123941" lon="4.487583345525">
        <ele>1.6</ele>
        <time>2020-08-16T17:11:35Z</time>
      </trkpt>
      <trkpt lat="51.217273223538" lon="4.488450536899">
        <ele>0.4</ele>
        <time>2020-08-16T17:11:51Z</time>
      </trkpt>
      <trkpt lat="51.217368777198" lon="4.489323176508">
        <ele>0</ele>
        <time>2020-08-16T17:12:07Z</time>
      </trkpt>
      <trkpt lat="51.217455697501" lon="4.490216016496">
        <ele>0</ele>
        <time>2020-08-16T17:12:25Z</time>
      </trkpt>
      <trkpt lat="51.217466007238" lon="4.490616084583">
        <ele>0</ele>
        <time>2020-08-16T17:12:33Z</time>
      </trkpt>
      <trkpt lat="51.217497523182" lon="4.490764947127">
        <ele>0</ele>
        <time>2020-08-16T17:12:36Z</time>
      </trkpt>
      <trkpt lat="51.217478831545" lon="4.490960077759">
        <ele>0</ele>
        <time>2020-08-16T17:12:40Z</time>
      </trkpt>
      <trkpt lat="51.217500540666" lon="4.491056553428">
        <ele>0</ele>
        <time>2020-08-16T17:12:42Z</time>
      </trkpt>
      <trkpt lat="51.217528955307" lon="4.49194319081">
        <ele>0</ele>
        <time>2020-08-16T17:13:01Z</time>
      </trkpt>
      <trkpt lat="51.217598860353" lon="4.49282831945">
        <ele>0.6</ele>
        <time>2020-08-16T17:13:20Z</time>
      </trkpt>
      <trkpt lat="51.21764772683" lon="4.493694756453">
        <ele>0.2</ele>
        <time>2020-08-16T17:13:41Z</time>
      </trkpt>
      <trkpt lat="51.217818130857" lon="4.494552979194">
        <ele>0.6</ele>
        <time>2020-08-16T17:14:00Z</time>
      </trkpt>
      <trkpt lat="51.218035389705" lon="4.495041811602">
        <ele>0</ele>
        <time>2020-08-16T17:14:11Z</time>
      </trkpt>
      <trkpt lat="51.218050728582" lon="4.495146082438">
        <ele>0</ele>
        <time>2020-08-16T17:14:13Z</time>
      </trkpt>
      <trkpt lat="51.218013010032" lon="4.495206599756">
        <ele>0</ele>
        <time>2020-08-16T17:14:15Z</time>
      </trkpt>
      <trkpt lat="51.217516214819" lon="4.495536343702">
        <ele>0</ele>
        <time>2020-08-16T17:14:32Z</time>
      </trkpt>
      <trkpt lat="51.216984131807" lon="4.495545144697">
        <ele>0</ele>
        <time>2020-08-16T17:14:52Z</time>
      </trkpt>
      <trkpt lat="51.216429250027" lon="4.495426037898">
        <ele>0</ele>
        <time>2020-08-16T17:15:08Z</time>
      </trkpt>
      <trkpt lat="51.215901441784" lon="4.495179023305">
        <ele>0</ele>
        <time>2020-08-16T17:15:22Z</time>
      </trkpt>
      <trkpt lat="51.215377573034" lon="4.494929577961">
        <ele>0</ele>
        <time>2020-08-16T17:15:37Z</time>
      </trkpt>
      <trkpt lat="51.21535443899" lon="4.494931924893">
        <ele>0</ele>
        <time>2020-08-16T17:15:39Z</time>
      </trkpt>
      <trkpt lat="51.215136258133" lon="4.494839891631">
        <ele>2.8</ele>
        <time>2020-08-16T17:16:58Z</time>
      </trkpt>
      <trkpt lat="51.214612389383" lon="4.494542501819">
        <ele>0.6</ele>
        <time>2020-08-16T17:17:16Z</time>
      </trkpt>
      <trkpt lat="51.214073349394" lon="4.494284423118">
        <ele>0</ele>
        <time>2020-08-16T17:17:31Z</time>
      </trkpt>
      <trkpt lat="51.213551911395" lon="4.494043275855">
        <ele>0</ele>
        <time>2020-08-16T17:17:50Z</time>
      </trkpt>
      <trkpt lat="51.213096941863" lon="4.493843786635">
        <ele>0</ele>
        <time>2020-08-16T17:18:46Z</time>
      </trkpt>
      <trkpt lat="51.213096271311" lon="4.493886534325">
        <ele>0</ele>
        <time>2020-08-16T17:18:54Z</time>
      </trkpt>
      <trkpt lat="51.212984289127" lon="4.494731513664">
        <ele>0</ele>
        <time>2020-08-16T17:19:13Z</time>
      </trkpt>
      <trkpt lat="51.212733167403" lon="4.495549754742">
        <ele>0.2</ele>
        <time>2020-08-16T17:19:31Z</time>
      </trkpt>
      <trkpt lat="51.212493445063" lon="4.496341341378">
        <ele>0.4</ele>
        <time>2020-08-16T17:19:47Z</time>
      </trkpt>
      <trkpt lat="51.212214830707" lon="4.497096131473">
        <ele>1.2</ele>
        <time>2020-08-16T17:20:04Z</time>
      </trkpt>
      <trkpt lat="51.211986843027" lon="4.497879839123">
        <ele>0</ele>
        <time>2020-08-16T17:20:22Z</time>
      </trkpt>
      <trkpt lat="51.211725495385" lon="4.498614512658">
        <ele>5.6</ele>
        <time>2020-08-16T17:20:49Z</time>
      </trkpt>
      <trkpt lat="51.211292234974" lon="4.499088676741">
        <ele>7.8</ele>
        <time>2020-08-16T17:21:02Z</time>
      </trkpt>
      <trkpt lat="51.210920162433" lon="4.499722851295">
        <ele>2.4</ele>
        <time>2020-08-16T17:21:19Z</time>
      </trkpt>
      <trkpt lat="51.210520345803" lon="4.49967381718">
        <ele>0</ele>
        <time>2020-08-16T17:21:37Z</time>
      </trkpt>
      <trkpt lat="51.210558148172" lon="4.498802351037">
        <ele>0</ele>
        <time>2020-08-16T17:21:56Z</time>
      </trkpt>
      <trkpt lat="51.210593268333" lon="4.497946559047">
        <ele>1</ele>
        <time>2020-08-16T17:22:20Z</time>
      </trkpt>
      <trkpt lat="51.210633585272" lon="4.497044666607">
        <ele>1</ele>
        <time>2020-08-16T17:22:38Z</time>
      </trkpt>
      <trkpt lat="51.210668453976" lon="4.49618024126">
        <ele>1.2</ele>
        <time>2020-08-16T17:22:53Z</time>
      </trkpt>
      <trkpt lat="51.210709692924" lon="4.495296621362">
        <ele>1.2</ele>
        <time>2020-08-16T17:23:09Z</time>
      </trkpt>
      <trkpt lat="51.210740286859" lon="4.494423059744">
        <ele>0</ele>
        <time>2020-08-16T17:23:29Z</time>
      </trkpt>
      <trkpt lat="51.210728300742" lon="4.494182918309">
        <ele>0</ele>
        <time>2020-08-16T17:23:38Z</time>
      </trkpt>
      <trkpt lat="51.21062704739" lon="4.494062218949">
        <ele>0</ele>
        <time>2020-08-16T17:23:59Z</time>
      </trkpt>
      <trkpt lat="51.210514562292" lon="4.494016956689">
        <ele>0</ele>
        <time>2020-08-16T17:24:04Z</time>
      </trkpt>
      <trkpt lat="51.210101166984" lon="4.493461655814">
        <ele>0</ele>
        <time>2020-08-16T17:24:23Z</time>
      </trkpt>
      <trkpt lat="51.209569670705" lon="4.493216652877">
        <ele>0</ele>
        <time>2020-08-16T17:24:44Z</time>
      </trkpt>
      <trkpt lat="51.209064158316" lon="4.493032083439">
        <ele>0</ele>
        <time>2020-08-16T17:25:04Z</time>
      </trkpt>
      <trkpt lat="51.208960055118" lon="4.493877565692">
        <ele>0</ele>
        <time>2020-08-16T17:25:26Z</time>
      </trkpt>
      <trkpt lat="51.208923929129" lon="4.493987787677">
        <ele>0</ele>
        <time>2020-08-16T17:25:29Z</time>
      </trkpt>
      <trkpt lat="51.208884869475" lon="4.494025757684">
        <ele>0</ele>
        <time>2020-08-16T17:25:31Z</time>
      </trkpt>
      <trkpt lat="51.208818568646" lon="4.494919519681">
        <ele>0</ele>
        <time>2020-08-16T17:25:50Z</time>
      </trkpt>
      <trkpt lat="51.208927868622" lon="4.49577120454">
        <ele>0</ele>
        <time>2020-08-16T17:26:05Z</time>
      </trkpt>
      <trkpt lat="51.209154096103" lon="4.496556169475">
        <ele>0</ele>
        <time>2020-08-16T17:26:19Z</time>
      </trkpt>
      <trkpt lat="51.209417371582" lon="4.497348426663">
        <ele>0.2</ele>
        <time>2020-08-16T17:26:34Z</time>
      </trkpt>
      <trkpt lat="51.209675953197" lon="4.498102630025">
        <ele>1.6</ele>
        <time>2020-08-16T17:26:48Z</time>
      </trkpt>
      <trkpt lat="51.209932523156" lon="4.498878207232">
        <ele>1.4</ele>
        <time>2020-08-16T17:27:04Z</time>
      </trkpt>
      <trkpt lat="51.210165372338" lon="4.49958161628">
        <ele>1</ele>
        <time>2020-08-16T17:27:18Z</time>
      </trkpt>
      <trkpt lat="51.21020962877" lon="4.499698208509">
        <ele>0.8</ele>
        <time>2020-08-16T17:27:20Z</time>
      </trkpt>
      <trkpt lat="51.210262015645" lon="4.499788565391">
        <ele>1</ele>
        <time>2020-08-16T17:27:22Z</time>
      </trkpt>
      <trkpt lat="51.210480112683" lon="4.500033735966">
        <ele>0.6</ele>
        <time>2020-08-16T17:27:35Z</time>
      </trkpt>
      <trkpt lat="51.210629142865" lon="4.499851262003">
        <ele>0.2</ele>
        <time>2020-08-16T17:27:42Z</time>
      </trkpt>
      <trkpt lat="51.211043879277" lon="4.499481201118">
        <ele>0</ele>
        <time>2020-08-16T17:27:55Z</time>
      </trkpt>
      <trkpt lat="51.21143422436" lon="4.49887753668">
        <ele>0</ele>
        <time>2020-08-16T17:28:10Z</time>
      </trkpt>
      <trkpt lat="51.211863629097" lon="4.498125177336">
        <ele>0</ele>
        <time>2020-08-16T17:35:32Z</time>
      </trkpt>
      <trkpt lat="51.212168981714" lon="4.497379188236">
        <ele>0</ele>
        <time>2020-08-16T17:35:47Z</time>
      </trkpt>
      <trkpt lat="51.212408368778" lon="4.496583075374">
        <ele>0</ele>
        <time>2020-08-16T17:36:05Z</time>
      </trkpt>
      <trkpt lat="51.212478944376" lon="4.49640739075">
        <ele>0</ele>
        <time>2020-08-16T17:36:11Z</time>
      </trkpt>
      <trkpt lat="51.212464527508" lon="4.496446869499">
        <ele>0</ele>
        <time>2020-08-16T17:36:15Z</time>
      </trkpt>
      <trkpt lat="51.212264619193" lon="4.496977024674">
        <ele>0</ele>
        <time>2020-08-16T17:36:27Z</time>
      </trkpt>
      <trkpt lat="51.212297811517" lon="4.496832939813">
        <ele>0</ele>
        <time>2020-08-16T17:36:43Z</time>
      </trkpt>
      <trkpt lat="51.212524122817" lon="4.496230281203">
        <ele>0</ele>
        <time>2020-08-16T17:36:56Z</time>
      </trkpt>
      <trkpt lat="51.212745656434" lon="4.495407346261">
        <ele>1.2</ele>
        <time>2020-08-16T17:37:13Z</time>
      </trkpt>
      <trkpt lat="51.212972135372" lon="4.494615675806">
        <ele>1.4</ele>
        <time>2020-08-16T17:37:28Z</time>
      </trkpt>
      <trkpt lat="51.213082860271" lon="4.494240082867">
        <ele>1.2</ele>
        <time>2020-08-16T17:37:37Z</time>
      </trkpt>
      <trkpt lat="51.213253264298" lon="4.494246956025">
        <ele>0.2</ele>
        <time>2020-08-16T17:37:44Z</time>
      </trkpt>
      <trkpt lat="51.213799345083" lon="4.494530599521">
        <ele>0</ele>
        <time>2020-08-16T17:38:00Z</time>
      </trkpt>
      <trkpt lat="51.214329835534" lon="4.49479890414">
        <ele>0</ele>
        <time>2020-08-16T17:38:14Z</time>
      </trkpt>
      <trkpt lat="51.214849680972" lon="4.495045332">
        <ele>0</ele>
        <time>2020-08-16T17:38:29Z</time>
      </trkpt>
      <trkpt lat="51.215084709448" lon="4.495164774075">
        <ele>0</ele>
        <time>2020-08-16T17:38:39Z</time>
      </trkpt>
      <trkpt lat="51.215106753845" lon="4.495085229844">
        <ele>0</ele>
        <time>2020-08-16T17:39:22Z</time>
      </trkpt>
      <trkpt lat="51.215615702813" lon="4.495048181846">
        <ele>0</ele>
        <time>2020-08-16T17:39:40Z</time>
      </trkpt>
      <trkpt lat="51.216137811364" lon="4.495319671587">
        <ele>0</ele>
        <time>2020-08-16T17:39:54Z</time>
      </trkpt>
      <trkpt lat="51.216683053959" lon="4.495512371468">
        <ele>0</ele>
        <time>2020-08-16T17:40:08Z</time>
      </trkpt>
      <trkpt lat="51.217221674853" lon="4.495649499352">
        <ele>0</ele>
        <time>2020-08-16T17:40:22Z</time>
      </trkpt>
      <trkpt lat="51.217719308256" lon="4.495334172274">
        <ele>0</ele>
        <time>2020-08-16T17:40:36Z</time>
      </trkpt>
      <trkpt lat="51.21801820681" lon="4.49504700838">
        <ele>0</ele>
        <time>2020-08-16T17:40:45Z</time>
      </trkpt>
      <trkpt lat="51.217768761466" lon="4.49429599014">
        <ele>0</ele>
        <time>2020-08-16T17:41:03Z</time>
      </trkpt>
      <trkpt lat="51.217650157581" lon="4.493989966971">
        <ele>0</ele>
        <time>2020-08-16T17:41:11Z</time>
      </trkpt>
      <trkpt lat="51.217655605816" lon="4.493796596538">
        <ele>0</ele>
        <time>2020-08-16T17:41:17Z</time>
      </trkpt>
      <trkpt lat="51.217621659121" lon="4.49375368121">
        <ele>0</ele>
        <time>2020-08-16T17:41:19Z</time>
      </trkpt>
      <trkpt lat="51.217584443485" lon="4.492859751575">
        <ele>0</ele>
        <time>2020-08-16T17:41:39Z</time>
      </trkpt>
      <trkpt lat="51.217566925314" lon="4.492176375268">
        <ele>0</ele>
        <time>2020-08-16T17:41:53Z</time>
      </trkpt>
      <trkpt lat="51.217525015814" lon="4.491549576786">
        <ele>0</ele>
        <time>2020-08-16T17:42:06Z</time>
      </trkpt>
      <trkpt lat="51.217493416051" lon="4.490690012941">
        <ele>0</ele>
        <time>2020-08-16T17:42:24Z</time>
      </trkpt>
      <trkpt lat="51.217438598425" lon="4.489811841278">
        <ele>0</ele>
        <time>2020-08-16T17:42:41Z</time>
      </trkpt>
      <trkpt lat="51.217356623443" lon="4.4891360925">
        <ele>0</ele>
        <time>2020-08-16T17:42:55Z</time>
      </trkpt>
      <trkpt lat="51.217327957345" lon="4.489052860233">
        <ele>0</ele>
        <time>2020-08-16T17:42:57Z</time>
      </trkpt>
      <trkpt lat="51.217305577672" lon="4.48876142157">
        <ele>0</ele>
        <time>2020-08-16T17:43:04Z</time>
      </trkpt>
      <trkpt lat="51.217298033962" lon="4.488675339457">
        <ele>0</ele>
        <time>2020-08-16T17:43:06Z</time>
      </trkpt>
      <trkpt lat="51.217268781131" lon="4.488590514629">
        <ele>0</ele>
        <time>2020-08-16T17:43:08Z</time>
      </trkpt>
      <trkpt lat="51.217209018184" lon="4.487721395418">
        <ele>0</ele>
        <time>2020-08-16T17:43:26Z</time>
      </trkpt>
      <trkpt lat="51.217161911906" lon="4.486861077202">
        <ele>0</ele>
        <time>2020-08-16T17:43:44Z</time>
      </trkpt>
      <trkpt lat="51.217149925789" lon="4.486825789403">
        <ele>0</ele>
        <time>2020-08-16T17:43:45Z</time>
      </trkpt>
      <trkpt lat="51.217121427329" lon="4.48675311833">
        <ele>0</ele>
        <time>2020-08-16T17:43:47Z</time>
      </trkpt>
      <trkpt lat="51.217102148959" lon="4.486676591583">
        <ele>0</ele>
        <time>2020-08-16T17:43:49Z</time>
      </trkpt>
      <trkpt lat="51.216860750239" lon="4.486546001581">
        <ele>0</ele>
        <time>2020-08-16T17:43:57Z</time>
      </trkpt>
      <trkpt lat="51.216799730007" lon="4.486578271896">
        <ele>0</ele>
        <time>2020-08-16T17:43:59Z</time>
      </trkpt>
      <trkpt lat="51.21677600923" lon="4.486500571683">
        <ele>0</ele>
        <time>2020-08-16T17:44:01Z</time>
      </trkpt>
      <trkpt lat="51.216812219038" lon="4.485637655078">
        <ele>0</ele>
        <time>2020-08-16T17:44:20Z</time>
      </trkpt>
      <trkpt lat="51.216870054148" lon="4.484700055744">
        <ele>0</ele>
        <time>2020-08-16T17:44:40Z</time>
      </trkpt>
      <trkpt lat="51.216905593404" lon="4.483818531321">
        <ele>0</ele>
        <time>2020-08-16T17:44:58Z</time>
      </trkpt>
      <trkpt lat="51.216965607808" lon="4.48296533772">
        <ele>0</ele>
        <time>2020-08-16T17:45:14Z</time>
      </trkpt>
      <trkpt lat="51.217020257796" lon="4.482194789653">
        <ele>0</ele>
        <time>2020-08-16T17:45:28Z</time>
      </trkpt>
      <trkpt lat="51.21705764107" lon="4.482074509388">
        <ele>0</ele>
        <time>2020-08-16T17:45:46Z</time>
      </trkpt>
      <trkpt lat="51.21703417175" lon="4.481209748765">
        <ele>0</ele>
        <time>2020-08-16T17:46:03Z</time>
      </trkpt>
      <trkpt lat="51.217099466751" lon="4.480335516595">
        <ele>0</ele>
        <time>2020-08-16T17:46:23Z</time>
      </trkpt>
      <trkpt lat="51.217141962984" lon="4.479475785112">
        <ele>0</ele>
        <time>2020-08-16T17:46:41Z</time>
      </trkpt>
      <trkpt lat="51.21716492939" lon="4.478573641215">
        <ele>0</ele>
        <time>2020-08-16T17:46:59Z</time>
      </trkpt>
      <trkpt lat="51.217202564121" lon="4.477696391561">
        <ele>0</ele>
        <time>2020-08-16T17:47:16Z</time>
      </trkpt>
      <trkpt lat="51.217273558814" lon="4.476795840225">
        <ele>0</ele>
        <time>2020-08-16T17:47:34Z</time>
      </trkpt>
      <trkpt lat="51.217296273763" lon="4.475900904762">
        <ele>0</ele>
        <time>2020-08-16T17:47:51Z</time>
      </trkpt>
      <trkpt lat="51.217287221311" lon="4.475027762239">
        <ele>0</ele>
        <time>2020-08-16T17:48:07Z</time>
      </trkpt>
      <trkpt lat="51.217312953744" lon="4.474153949164">
        <ele>0</ele>
        <time>2020-08-16T17:48:23Z</time>
      </trkpt>
      <trkpt lat="51.217366597904" lon="4.473261695909">
        <ele>0</ele>
        <time>2020-08-16T17:48:39Z</time>
      </trkpt>
      <trkpt lat="51.217394174355" lon="4.472346727705">
        <ele>0</ele>
        <time>2020-08-16T17:48:55Z</time>
      </trkpt>
      <trkpt lat="51.21743063562" lon="4.471475093924">
        <ele>0</ele>
        <time>2020-08-16T17:49:11Z</time>
      </trkpt>
      <trkpt lat="51.217500708304" lon="4.470582924488">
        <ele>0</ele>
        <time>2020-08-16T17:49:27Z</time>
      </trkpt>
      <trkpt lat="51.217478999183" lon="4.469699556047">
        <ele>0</ele>
        <time>2020-08-16T17:49:43Z</time>
      </trkpt>
      <trkpt lat="51.217490482386" lon="4.468842171496">
        <ele>0</ele>
        <time>2020-08-16T17:49:59Z</time>
      </trkpt>
      <trkpt lat="51.21755384955" lon="4.467968777516">
        <ele>0</ele>
        <time>2020-08-16T17:50:14Z</time>
      </trkpt>
      <trkpt lat="51.217623586958" lon="4.467071914216">
        <ele>0</ele>
        <time>2020-08-16T17:50:38Z</time>
      </trkpt>
      <trkpt lat="51.21766197606" lon="4.466182510807">
        <ele>0</ele>
        <time>2020-08-16T17:50:58Z</time>
      </trkpt>
      <trkpt lat="51.217663820078" lon="4.465325042437">
        <ele>0</ele>
        <time>2020-08-16T17:51:17Z</time>
      </trkpt>
      <trkpt lat="51.217794996813" lon="4.464435806666">
        <ele>0</ele>
        <time>2020-08-16T17:51:38Z</time>
      </trkpt>
      <trkpt lat="51.217800025953" lon="4.463556377718">
        <ele>0</ele>
        <time>2020-08-16T17:51:55Z</time>
      </trkpt>
      <trkpt lat="51.217852496647" lon="4.462697819701">
        <ele>0</ele>
        <time>2020-08-16T17:52:12Z</time>
      </trkpt>
      <trkpt lat="51.217841767815" lon="4.461808500111">
        <ele>0</ele>
        <time>2020-08-16T17:52:31Z</time>
      </trkpt>
      <trkpt lat="51.217899351468" lon="4.460922365643">
        <ele>0</ele>
        <time>2020-08-16T17:52:50Z</time>
      </trkpt>
      <trkpt lat="51.217909074472" lon="4.460017539538">
        <ele>0</ele>
        <time>2020-08-16T17:53:08Z</time>
      </trkpt>
      <trkpt lat="51.217931705602" lon="4.459159316797">
        <ele>0</ele>
        <time>2020-08-16T17:53:25Z</time>
      </trkpt>
      <trkpt lat="51.217931286507" lon="4.458292125423">
        <ele>0</ele>
        <time>2020-08-16T17:53:41Z</time>
      </trkpt>
      <trkpt lat="51.21799641387" lon="4.457410517181">
        <ele>0</ele>
        <time>2020-08-16T17:53:56Z</time>
      </trkpt>
      <trkpt lat="51.218457334551" lon="4.45688086492">
        <ele>0</ele>
        <time>2020-08-16T17:54:11Z</time>
      </trkpt>
      <trkpt lat="51.218912723178" lon="4.456345512967">
        <ele>0</ele>
        <time>2020-08-16T17:54:26Z</time>
      </trkpt>
      <trkpt lat="51.219396526446" lon="4.45594879764">
        <ele>1.8</ele>
        <time>2020-08-16T17:54:42Z</time>
      </trkpt>
      <trkpt lat="51.219895165677" lon="4.455533642133">
        <ele>0</ele>
        <time>2020-08-16T17:54:59Z</time>
      </trkpt>
      <trkpt lat="51.219928274182" lon="4.455533306857">
        <ele>0</ele>
        <time>2020-08-16T17:55:00Z</time>
      </trkpt>
      <trkpt lat="51.219968088207" lon="4.455562056774">
        <ele>0</ele>
        <time>2020-08-16T17:55:02Z</time>
      </trkpt>
      <trkpt lat="51.22001226082" lon="4.455620730074">
        <ele>0</ele>
        <time>2020-08-16T17:55:06Z</time>
      </trkpt>
      <trkpt lat="51.22000220254" lon="4.455616287667">
        <ele>0</ele>
        <time>2020-08-16T17:55:44Z</time>
      </trkpt>
      <trkpt lat="51.220343932603" lon="4.455231726095">
        <ele>0</ele>
        <time>2020-08-16T17:56:07Z</time>
      </trkpt>
      <trkpt lat="51.220308560985" lon="4.455078002049">
        <ele>7.4</ele>
        <time>2020-08-16T18:14:39Z</time>
      </trkpt>
      <trkpt lat="51.220320547102" lon="4.455013545238">
        <ele>6.6</ele>
        <time>2020-08-16T18:14:45Z</time>
      </trkpt>
      <trkpt lat="51.22033831673" lon="4.454865688522">
        <ele>4</ele>
        <time>2020-08-16T18:14:51Z</time>
      </trkpt>
      <trkpt lat="51.220508134024" lon="4.454528233228">
        <ele>0.6</ele>
        <time>2020-08-16T18:15:11Z</time>
      </trkpt>
      <trkpt lat="51.221034182068" lon="4.454296222236">
        <ele>0</ele>
        <time>2020-08-16T18:15:32Z</time>
      </trkpt>
      <trkpt lat="51.221576910093" lon="4.454322122307">
        <ele>0</ele>
        <time>2020-08-16T18:15:45Z</time>
      </trkpt>
      <trkpt lat="51.222121482136" lon="4.454306951068">
        <ele>0</ele>
        <time>2020-08-16T18:15:58Z</time>
      </trkpt>
      <trkpt lat="51.222664461618" lon="4.454168984994">
        <ele>0</ele>
        <time>2020-08-16T18:16:16Z</time>
      </trkpt>
      <trkpt lat="51.222991942451" lon="4.453467922878">
        <ele>0</ele>
        <time>2020-08-16T18:16:43Z</time>
      </trkpt>
      <trkpt lat="51.223334594523" lon="4.452778092508">
        <ele>0</ele>
        <time>2020-08-16T18:17:02Z</time>
      </trkpt>
      <trkpt lat="51.223661572442" lon="4.452072420347">
        <ele>0</ele>
        <time>2020-08-16T18:17:25Z</time>
      </trkpt>
      <trkpt lat="51.22402467635" lon="4.451443777847">
        <ele>0</ele>
        <time>2020-08-16T18:17:54Z</time>
      </trkpt>
      <trkpt lat="51.224435221812" lon="4.450832569699">
        <ele>0</ele>
        <time>2020-08-16T18:18:17Z</time>
      </trkpt>
      <trkpt lat="51.224818945194" lon="4.450218679343">
        <ele>0</ele>
        <time>2020-08-16T18:18:38Z</time>
      </trkpt>
      <trkpt lat="51.225285481748" lon="4.449750801685">
        <ele>0</ele>
        <time>2020-08-16T18:19:04Z</time>
      </trkpt>
      <trkpt lat="51.225839609157" lon="4.449631443429">
        <ele>0</ele>
        <time>2020-08-16T18:19:26Z</time>
      </trkpt>
      <trkpt lat="51.226223081082" lon="4.449032472855">
        <ele>0</ele>
        <time>2020-08-16T18:19:47Z</time>
      </trkpt>
      <trkpt lat="51.226336069094" lon="4.448855530946">
        <ele>0</ele>
        <time>2020-08-16T18:19:53Z</time>
      </trkpt>
      <trkpt lat="51.226584257153" lon="4.449306225709">
        <ele>0</ele>
        <time>2020-08-16T18:20:06Z</time>
      </trkpt>
      <trkpt lat="51.227024055446" lon="4.448785542081">
        <ele>0</ele>
        <time>2020-08-16T18:20:32Z</time>
      </trkpt>
      <trkpt lat="51.227420519316" lon="4.448209034999">
        <ele>0</ele>
        <time>2020-08-16T18:20:53Z</time>
      </trkpt>
      <trkpt lat="51.227816731729" lon="4.447628336967">
        <ele>0</ele>
        <time>2020-08-16T18:21:10Z</time>
      </trkpt>
      <trkpt lat="51.228228366838" lon="4.447091392453">
        <ele>0</ele>
        <time>2020-08-16T18:21:27Z</time>
      </trkpt>
      <trkpt lat="51.228344288515" lon="4.447198848411">
        <ele>4.8</ele>
        <time>2020-08-16T18:21:45Z</time>
      </trkpt>
      <trkpt lat="51.228359040659" lon="4.447217456229">
        <ele>4.8</ele>
        <time>2020-08-16T18:21:46Z</time>
      </trkpt>
      <trkpt lat="51.228744608059" lon="4.447856408466">
        <ele>2.2</ele>
        <time>2020-08-16T18:22:04Z</time>
      </trkpt>
      <trkpt lat="51.229078878231" lon="4.448558560229">
        <ele>0.8</ele>
        <time>2020-08-16T18:22:36Z</time>
      </trkpt>
      <trkpt lat="51.228966225495" lon="4.448688982593">
        <ele>0</ele>
        <time>2020-08-16T18:22:52Z</time>
      </trkpt>
      <trkpt lat="51.228608821279" lon="4.449274793584">
        <ele>0</ele>
        <time>2020-08-16T18:23:24Z</time>
      </trkpt>
    </trkseg>
  </trk>
</gpx>